createdAt,value
2023-03-24T00:00:47.224Z,20.60
2023-03-24T00:01:49.792Z,20.60
2023-03-24T00:02:52.269Z,20.60
2023-03-24T00:03:54.805Z,20.70
2023-03-24T00:04:58.742Z,20.60
2023-03-24T00:06:03.580Z,20.60
2023-03-24T00:07:06.015Z,20.60
2023-03-24T00:08:08.835Z,20.60
2023-03-24T00:09:11.358Z,20.60
2023-03-24T00:10:17.964Z,20.60
2023-03-24T00:11:21.241Z,20.60
2023-03-24T00:12:24.256Z,20.60
2023-03-24T00:13:26.653Z,20.60
2023-03-24T00:14:30.706Z,20.60
2023-03-24T00:15:34.287Z,20.60
2023-03-24T00:16:38.369Z,20.60
2023-03-24T00:17:41.138Z,20.60
2023-03-24T00:18:43.574Z,20.60
2023-03-24T00:19:46.248Z,20.60
2023-03-24T00:20:49.381Z,20.60
2023-03-24T00:21:55.847Z,20.50
2023-03-24T00:22:58.969Z,20.50
2023-03-24T00:24:01.971Z,20.60
2023-03-24T00:25:04.628Z,20.60
2023-03-24T00:26:15.162Z,20.60
2023-03-24T00:27:18.628Z,20.60
2023-03-24T00:28:21.166Z,20.60
2023-03-24T00:29:27.460Z,20.50
2023-03-24T00:30:29.840Z,20.50
2023-03-24T00:31:32.484Z,20.60
2023-03-24T00:32:39.054Z,20.50
2023-03-24T00:33:42.674Z,20.50
2023-03-24T00:34:45.036Z,20.50
2023-03-24T00:35:48.417Z,20.50
2023-03-24T00:36:52.177Z,20.50
2023-03-24T00:37:54.963Z,20.50
2023-03-24T00:38:57.933Z,20.50
2023-03-24T00:40:00.836Z,20.50
2023-03-24T00:41:06.331Z,20.50
2023-03-24T00:42:09.070Z,20.50
2023-03-24T00:43:13.346Z,20.50
2023-03-24T00:44:19.733Z,20.50
2023-03-24T00:45:26.105Z,20.50
2023-03-24T00:46:29.395Z,20.50
2023-03-24T00:47:38.006Z,20.50
2023-03-24T00:48:42.065Z,20.50
2023-03-24T00:49:48.113Z,20.50
2023-03-24T00:50:51.730Z,20.50
2023-03-24T00:51:54.138Z,20.50
2023-03-24T00:52:58.133Z,20.50
2023-03-24T00:54:01.797Z,20.50
2023-03-24T00:55:06.623Z,20.50
2023-03-24T00:56:09.233Z,20.50
2023-03-24T00:57:21.584Z,20.50
2023-03-24T00:58:24.630Z,20.50
2023-03-24T00:59:29.481Z,20.50
2023-03-24T01:00:32.546Z,20.50
2023-03-24T01:01:36.523Z,20.50
2023-03-24T01:02:39.608Z,20.50
2023-03-24T01:03:48.142Z,20.50
2023-03-24T01:04:59.579Z,20.50
2023-03-24T01:06:04.898Z,20.50
2023-03-24T01:07:10.789Z,20.50
2023-03-24T01:08:14.132Z,20.50
2023-03-24T01:09:16.476Z,20.50
2023-03-24T01:10:26.021Z,20.50
2023-03-24T01:11:29.623Z,20.50
2023-03-24T01:12:36.925Z,20.50
2023-03-24T01:13:41.010Z,20.50
2023-03-24T01:14:43.529Z,20.50
2023-03-24T01:15:45.935Z,20.50
2023-03-24T01:16:48.267Z,20.50
2023-03-24T01:17:53.439Z,20.50
2023-03-24T01:18:56.182Z,20.50
2023-03-24T01:19:58.757Z,20.50
2023-03-24T01:21:01.417Z,20.50
2023-03-24T01:22:03.878Z,20.50
2023-03-24T01:23:06.894Z,20.50
2023-03-24T01:24:09.573Z,20.50
2023-03-24T01:25:18.081Z,20.50
2023-03-24T01:26:20.525Z,20.50
2023-03-24T01:27:23.058Z,20.50
2023-03-24T01:28:26.003Z,20.50
2023-03-24T01:29:28.713Z,20.50
2023-03-24T01:30:31.655Z,20.50
2023-03-24T01:31:34.519Z,20.50
2023-03-24T01:32:37.461Z,20.50
2023-03-24T01:33:39.926Z,20.50
2023-03-24T01:34:42.367Z,20.50
2023-03-24T01:35:45.420Z,20.50
2023-03-24T01:36:47.884Z,20.50
2023-03-24T01:37:50.471Z,20.50
2023-03-24T01:38:52.937Z,20.50
2023-03-24T01:39:55.498Z,20.50
2023-03-24T01:40:58.122Z,20.60
2023-03-24T01:42:00.544Z,20.60
2023-03-24T01:43:04.640Z,20.60
2023-03-24T01:44:26.129Z,20.60
2023-03-24T01:45:52.676Z,20.60
2023-03-24T01:46:57.088Z,20.60
2023-03-24T01:47:59.868Z,20.60
2023-03-24T01:49:07.646Z,20.60
2023-03-24T01:50:11.151Z,20.60
2023-03-24T01:51:19.507Z,20.60
2023-03-24T01:52:30.989Z,20.60
2023-03-24T01:53:36.377Z,20.60
2023-03-24T01:54:43.278Z,20.60
2023-03-24T01:55:48.773Z,20.60
2023-03-24T01:57:03.868Z,20.60
2023-03-24T01:58:07.328Z,20.60
2023-03-24T01:59:27.288Z,20.60
2023-03-24T02:00:50.911Z,20.60
2023-03-24T02:02:22.025Z,20.60
2023-03-24T02:03:33.897Z,20.60
2023-03-24T02:04:44.454Z,20.60
2023-03-24T02:05:49.857Z,20.50
2023-03-24T02:06:53.569Z,20.50
2023-03-24T02:08:02.065Z,20.50
2023-03-24T02:09:04.598Z,20.50
2023-03-24T02:10:10.825Z,20.60
2023-03-24T02:11:13.346Z,20.50
2023-03-24T02:12:24.720Z,20.50
2023-03-24T02:13:29.070Z,20.50
2023-03-24T02:14:32.020Z,20.50
2023-03-24T02:15:55.370Z,20.60
2023-03-24T02:17:16.214Z,20.60
2023-03-24T02:18:46.952Z,20.50
2023-03-24T02:20:10.729Z,20.50
2023-03-24T02:21:32.965Z,20.60
2023-03-24T02:22:51.748Z,20.50
2023-03-24T02:23:59.080Z,20.60
2023-03-24T02:25:18.975Z,20.60
2023-03-24T02:26:33.739Z,20.60
2023-03-24T02:28:12.980Z,20.60
2023-03-24T02:29:54.637Z,20.50
2023-03-24T02:31:08.624Z,20.60
2023-03-24T02:32:24.517Z,20.60
2023-03-24T02:33:48.294Z,20.50
2023-03-24T02:35:05.898Z,20.50
2023-03-24T02:36:26.204Z,20.60
2023-03-24T02:37:55.021Z,20.60
2023-03-24T02:39:16.257Z,20.60
2023-03-24T02:40:21.803Z,20.60
2023-03-24T02:41:24.387Z,20.60
2023-03-24T02:42:52.355Z,20.60
2023-03-24T02:44:25.837Z,20.60
2023-03-24T02:46:06.930Z,20.60
2023-03-24T02:47:37.635Z,20.60
2023-03-24T02:48:52.250Z,20.60
2023-03-24T02:50:17.690Z,20.60
2023-03-24T02:51:29.815Z,20.60
2023-03-24T02:52:34.910Z,20.60
2023-03-24T02:54:21.606Z,20.60
2023-03-24T02:55:32.992Z,20.60
2023-03-24T02:56:50.036Z,20.60
2023-03-24T02:58:42.023Z,20.70
2023-03-24T03:00:10.192Z,20.70
2023-03-24T03:01:54.232Z,20.70
2023-03-24T03:03:29.575Z,20.70
2023-03-24T03:04:38.046Z,20.70
2023-03-24T03:06:13.619Z,20.60
2023-03-24T03:07:21.841Z,20.60
2023-03-24T03:08:27.357Z,20.60
2023-03-24T03:09:30.433Z,20.60
2023-03-24T03:10:38.308Z,20.60
2023-03-24T03:11:44.184Z,20.60
2023-03-24T03:12:50.649Z,20.60
2023-03-24T03:14:20.868Z,20.60
2023-03-24T03:15:27.571Z,20.60
2023-03-24T03:16:34.691Z,20.60
2023-03-24T03:17:49.384Z,20.60
2023-03-24T03:19:01.849Z,20.60
2023-03-24T03:20:24.975Z,20.60
2023-03-24T03:21:32.923Z,20.60
2023-03-24T03:22:45.104Z,20.60
2023-03-24T03:23:56.476Z,20.50
2023-03-24T03:25:02.277Z,20.60
2023-03-24T03:26:12.283Z,20.60
2023-03-24T03:27:20.047Z,20.60
2023-03-24T03:28:25.745Z,20.60
2023-03-24T03:29:33.943Z,20.60
2023-03-24T03:30:47.250Z,20.60
2023-03-24T03:31:59.969Z,20.60
2023-03-24T03:33:10.754Z,20.60
2023-03-24T03:34:22.493Z,20.60
2023-03-24T03:35:33.172Z,20.60
2023-03-24T03:37:03.675Z,20.60
2023-03-24T03:38:40.334Z,20.60
2023-03-24T03:39:51.559Z,20.60
2023-03-24T03:40:55.838Z,20.60
2023-03-24T03:42:04.305Z,20.60
2023-03-24T03:43:06.883Z,20.50
2023-03-24T03:44:09.879Z,20.40
2023-03-24T03:45:14.214Z,20.20
2023-03-24T03:46:18.235Z,20.10
2023-03-24T03:47:23.200Z,20.10
2023-03-24T03:48:27.076Z,20.10
2023-03-24T03:49:29.648Z,20.10
2023-03-24T03:50:32.665Z,20.10
2023-03-24T03:51:40.629Z,20.10
2023-03-24T03:52:44.530Z,20.10
2023-03-24T03:54:01.050Z,20.00
2023-03-24T03:55:07.300Z,20.00
2023-03-24T03:56:10.424Z,19.90
2023-03-24T03:57:21.032Z,19.90
2023-03-24T03:58:50.224Z,19.90
2023-03-24T03:59:53.574Z,19.90
2023-03-24T04:00:56.299Z,19.80
2023-03-24T04:02:42.222Z,19.80
2023-03-24T04:03:51.134Z,19.80
2023-03-24T04:05:06.385Z,19.80
2023-03-24T04:06:57.507Z,19.80
2023-03-24T04:08:25.865Z,19.60
2023-03-24T04:09:44.639Z,19.60
2023-03-24T04:10:55.691Z,19.60
2023-03-24T04:12:03.920Z,19.70
2023-03-24T04:13:31.738Z,19.70
2023-03-24T04:15:09.358Z,19.70
2023-03-24T04:17:16.822Z,19.70
2023-03-24T04:18:28.804Z,19.80
2023-03-24T04:19:45.653Z,19.90
2023-03-24T04:21:13.281Z,19.90
2023-03-24T04:22:18.458Z,19.90
2023-03-24T04:24:02.209Z,20.00
2023-03-24T04:25:35.022Z,20.00
2023-03-24T04:26:51.248Z,20.00
2023-03-24T04:28:07.795Z,20.00
2023-03-24T04:29:33.143Z,19.90
2023-03-24T04:30:57.432Z,19.90
2023-03-24T04:32:19.533Z,19.80
2023-03-24T04:33:48.596Z,19.60
2023-03-24T04:35:01.297Z,19.50
2023-03-24T04:36:42.379Z,19.50
2023-03-24T04:38:25.767Z,19.50
2023-03-24T04:39:45.514Z,19.50
2023-03-24T04:40:55.548Z,19.40
2023-03-24T04:42:02.436Z,19.40
2023-03-24T04:43:07.369Z,19.40
2023-03-24T04:44:11.075Z,19.50
2023-03-24T04:45:25.661Z,19.60
2023-03-24T04:46:59.418Z,19.70
2023-03-24T04:48:05.145Z,19.70
2023-03-24T04:49:27.157Z,19.70
2023-03-24T04:50:38.013Z,19.70
2023-03-24T04:51:44.504Z,19.80
2023-03-24T04:53:00.963Z,19.80
2023-03-24T04:54:04.100Z,19.80
2023-03-24T04:55:40.723Z,19.80
2023-03-24T04:56:56.759Z,19.80
2023-03-24T04:58:08.465Z,19.90
2023-03-24T04:59:12.811Z,19.80
2023-03-24T05:00:16.377Z,19.80
2023-03-24T05:01:21.434Z,19.80
2023-03-24T05:02:45.115Z,19.90
2023-03-24T05:03:54.128Z,19.90
2023-03-24T05:04:56.672Z,20.00
2023-03-24T05:06:08.121Z,20.10
2023-03-24T05:07:11.453Z,20.30
2023-03-24T05:08:16.325Z,20.50
2023-03-24T05:09:23.677Z,20.30
2023-03-24T05:10:26.040Z,20.00
2023-03-24T05:11:31.431Z,20.00
2023-03-24T05:12:39.728Z,20.20
2023-03-24T05:14:00.800Z,20.40
2023-03-24T05:15:03.955Z,20.50
2023-03-24T05:16:07.578Z,20.50
2023-03-24T05:17:15.700Z,20.60
2023-03-24T05:18:18.005Z,20.70
2023-03-24T05:19:20.722Z,20.80
2023-03-24T05:20:24.012Z,20.80
2023-03-24T05:21:27.040Z,20.80
2023-03-24T05:22:29.580Z,20.80
2023-03-24T05:23:31.882Z,20.90
2023-03-24T05:24:34.848Z,20.90
2023-03-24T05:25:37.221Z,20.90
2023-03-24T05:26:39.803Z,21.00
2023-03-24T05:27:47.943Z,21.00
2023-03-24T05:29:00.223Z,21.10
2023-03-24T05:30:05.194Z,21.10
2023-03-24T05:31:09.252Z,21.20
2023-03-24T05:32:24.580Z,21.30
2023-03-24T05:33:27.075Z,21.30
2023-03-24T05:34:29.574Z,21.30
2023-03-24T05:35:40.400Z,21.00
2023-03-24T05:36:43.355Z,20.70
2023-03-24T05:37:46.155Z,20.70
2023-03-24T05:38:48.459Z,20.80
2023-03-24T05:39:50.766Z,20.90
2023-03-24T05:41:15.951Z,21.00
2023-03-24T05:42:18.992Z,21.20
2023-03-24T05:43:21.311Z,21.20
2023-03-24T05:44:33.566Z,21.30
2023-03-24T05:45:41.302Z,21.40
2023-03-24T05:46:46.256Z,21.40
2023-03-24T05:47:48.733Z,21.40
2023-03-24T05:48:55.639Z,21.40
2023-03-24T05:50:03.607Z,21.40
2023-03-24T05:51:07.659Z,21.40
2023-03-24T05:52:11.219Z,21.40
2023-03-24T05:53:18.826Z,21.40
2023-03-24T05:54:43.114Z,21.50
2023-03-24T05:55:53.734Z,21.50
2023-03-24T05:57:16.339Z,21.50
2023-03-24T05:58:39.140Z,21.50
2023-03-24T05:59:41.822Z,21.60
2023-03-24T06:01:13.414Z,21.60
2023-03-24T06:02:16.104Z,21.50
2023-03-24T06:03:25.656Z,21.50
2023-03-24T06:04:38.163Z,21.50
2023-03-24T06:05:47.991Z,21.50
2023-03-24T06:06:51.280Z,20.90
2023-03-24T06:08:01.359Z,20.50
2023-03-24T06:09:06.852Z,20.60
2023-03-24T06:10:11.329Z,20.80
2023-03-24T06:11:20.401Z,20.90
2023-03-24T06:12:34.174Z,21.00
2023-03-24T06:13:39.368Z,21.10
2023-03-24T06:14:41.752Z,21.20
2023-03-24T06:15:49.605Z,21.30
2023-03-24T06:17:14.547Z,21.30
2023-03-24T06:18:18.448Z,21.30
2023-03-24T06:19:24.636Z,21.30
2023-03-24T06:20:36.039Z,21.40
2023-03-24T06:21:41.075Z,21.40
2023-03-24T06:22:45.623Z,21.40
2023-03-24T06:23:50.837Z,21.40
2023-03-24T06:25:00.157Z,21.50
2023-03-24T06:26:07.795Z,21.50
2023-03-24T06:27:11.730Z,21.40
2023-03-24T06:28:14.253Z,20.90
2023-03-24T06:29:18.614Z,20.60
2023-03-24T06:30:22.223Z,20.80
2023-03-24T06:31:25.392Z,20.90
2023-03-24T06:32:28.901Z,20.90
2023-03-24T06:33:31.254Z,21.00
2023-03-24T06:34:35.126Z,21.10
2023-03-24T06:35:51.852Z,21.20
2023-03-24T06:36:54.307Z,21.30
2023-03-24T06:37:56.680Z,21.30
2023-03-24T06:38:59.179Z,21.30
2023-03-24T06:40:03.348Z,21.40
2023-03-24T06:41:08.675Z,21.50
2023-03-24T06:42:11.250Z,21.50
2023-03-24T06:43:13.833Z,21.50
2023-03-24T06:44:18.351Z,21.50
2023-03-24T06:45:20.742Z,21.50
2023-03-24T06:46:24.832Z,21.50
2023-03-24T06:47:27.567Z,21.60
2023-03-24T06:48:30.128Z,21.50
2023-03-24T06:49:42.496Z,21.60
2023-03-24T06:50:44.896Z,21.60
2023-03-24T06:51:47.495Z,21.60
2023-03-24T06:52:51.993Z,21.50
2023-03-24T06:53:55.266Z,21.40
2023-03-24T06:54:59.163Z,21.40
2023-03-24T06:56:03.684Z,21.30
2023-03-24T06:57:13.730Z,21.30
2023-03-24T06:58:34.943Z,21.30
2023-03-24T06:59:42.503Z,21.30
2023-03-24T07:00:47.081Z,21.20
2023-03-24T07:02:03.361Z,21.20
2023-03-24T07:03:09.597Z,21.20
2023-03-24T07:04:14.360Z,21.20
2023-03-24T07:05:28.038Z,21.20
2023-03-24T07:06:30.811Z,21.20
2023-03-24T07:09:10.141Z,21.40
2023-03-24T07:10:14.024Z,21.50
2023-03-24T07:11:17.650Z,21.50
2023-03-24T07:12:26.192Z,21.50
2023-03-24T07:13:28.842Z,21.50
2023-03-24T07:14:39.276Z,21.50
2023-03-24T07:15:42.879Z,21.50
2023-03-24T07:16:46.453Z,21.50
2023-03-24T07:18:19.337Z,21.60
2023-03-24T07:19:28.613Z,21.60
2023-03-24T07:21:04.884Z,21.50
2023-03-24T07:22:09.789Z,21.50
2023-03-24T07:23:33.092Z,21.50
2023-03-24T07:24:39.933Z,21.60
2023-03-24T07:26:02.418Z,21.60
2023-03-24T07:27:19.863Z,21.60
2023-03-24T07:28:22.496Z,21.60
2023-03-24T07:29:25.210Z,21.60
2023-03-24T07:30:49.412Z,21.60
2023-03-24T07:31:58.659Z,21.60
2023-03-24T07:33:02.222Z,21.60
2023-03-24T07:34:08.341Z,21.60
2023-03-24T07:35:12.875Z,21.60
2023-03-24T07:36:15.265Z,21.60
2023-03-24T07:37:17.573Z,21.60
2023-03-24T07:38:20.423Z,21.60
2023-03-24T07:39:26.237Z,21.60
2023-03-24T07:40:30.190Z,21.60
2023-03-24T07:41:32.624Z,21.50
2023-03-24T07:42:39.878Z,21.50
2023-03-24T07:44:04.804Z,21.50
2023-03-24T07:45:15.728Z,21.60
2023-03-24T07:46:18.229Z,21.60
2023-03-24T07:47:21.289Z,21.20
2023-03-24T07:48:23.736Z,20.70
2023-03-24T07:49:27.381Z,20.40
2023-03-24T07:50:42.444Z,20.10
2023-03-24T07:52:06.491Z,20.00
2023-03-24T07:53:14.857Z,19.80
2023-03-24T07:54:17.540Z,19.90
2023-03-24T07:55:23.970Z,20.10
2023-03-24T07:56:30.711Z,20.30
2023-03-24T07:57:37.315Z,20.50
2023-03-24T07:58:42.909Z,20.50
2023-03-24T07:59:54.705Z,20.70
2023-03-24T08:01:17.314Z,20.80
2023-03-24T08:02:23.374Z,20.90
2023-03-24T08:03:32.271Z,20.90
2023-03-24T08:04:56.607Z,21.00
2023-03-24T08:06:17.788Z,21.00
2023-03-24T08:07:26.870Z,21.10
2023-03-24T08:08:31.184Z,21.10
2023-03-24T08:09:33.630Z,21.10
2023-03-24T08:10:37.049Z,21.10
2023-03-24T08:11:42.012Z,21.10
2023-03-24T08:12:44.780Z,20.90
2023-03-24T08:13:47.734Z,20.80
2023-03-24T08:14:50.309Z,20.70
2023-03-24T08:15:53.480Z,20.60
2023-03-24T08:16:56.059Z,20.50
2023-03-24T08:17:59.159Z,20.50
2023-03-24T08:19:01.793Z,20.40
2023-03-24T08:20:08.366Z,20.40
2023-03-24T08:21:11.477Z,20.30
2023-03-24T08:22:14.105Z,20.30
2023-03-24T08:23:17.982Z,20.30
2023-03-24T08:24:20.332Z,20.20
2023-03-24T08:25:25.821Z,20.20
2023-03-24T08:26:30.783Z,20.20
2023-03-24T08:27:33.237Z,20.20
2023-03-24T08:28:35.741Z,20.10
2023-03-24T08:29:38.171Z,20.20
2023-03-24T08:30:43.531Z,20.10
2023-03-24T08:31:46.388Z,20.20
2023-03-24T08:32:54.058Z,20.20
2023-03-24T08:33:56.324Z,20.10
2023-03-24T08:34:58.845Z,20.10
2023-03-24T08:36:01.482Z,20.10
2023-03-24T08:37:04.237Z,20.10
2023-03-24T08:38:08.049Z,20.10
2023-03-24T08:39:10.516Z,20.00
2023-03-24T08:40:20.322Z,20.10
2023-03-24T08:41:30.634Z,20.10
2023-03-24T08:42:33.039Z,20.10
2023-03-24T08:43:37.292Z,20.00
2023-03-24T08:44:39.581Z,20.10
2023-03-24T08:45:42.145Z,20.10
2023-03-24T08:46:44.674Z,20.10
2023-03-24T08:47:49.323Z,20.10
2023-03-24T08:48:51.760Z,20.00
2023-03-24T08:49:57.976Z,20.10
2023-03-24T08:51:09.259Z,20.10
2023-03-24T08:52:11.674Z,20.10
2023-03-24T08:53:14.675Z,20.10
2023-03-24T08:54:17.375Z,20.10
2023-03-24T08:55:21.013Z,20.00
2023-03-24T08:56:23.992Z,20.10
2023-03-24T08:57:26.824Z,20.00
2023-03-24T08:58:29.456Z,20.10
2023-03-24T08:59:31.815Z,20.20
2023-03-24T09:00:34.526Z,20.30
2023-03-24T09:01:36.944Z,20.50
2023-03-24T09:02:39.560Z,20.70
2023-03-24T09:03:41.866Z,20.80
2023-03-24T09:04:45.839Z,20.80
2023-03-24T09:05:49.115Z,20.80
2023-03-24T09:06:53.564Z,20.80
2023-03-24T09:07:55.990Z,20.80
2023-03-24T09:08:58.736Z,20.70
2023-03-24T09:10:01.539Z,20.70
2023-03-24T09:11:05.163Z,20.70
2023-03-24T09:12:07.818Z,20.60
2023-03-24T09:13:10.405Z,20.60
2023-03-24T09:14:12.987Z,20.60
2023-03-24T09:15:15.975Z,20.60
2023-03-24T09:16:18.669Z,20.60
2023-03-24T09:17:21.558Z,20.50
2023-03-24T09:18:24.541Z,20.60
2023-03-24T09:19:26.887Z,20.60
2023-03-24T09:20:29.330Z,20.60
2023-03-24T09:21:31.781Z,20.50
2023-03-24T09:22:36.945Z,20.50
2023-03-24T09:23:39.365Z,20.50
2023-03-24T09:24:41.712Z,20.30
2023-03-24T09:25:45.112Z,20.30
2023-03-24T09:26:47.578Z,20.20
2023-03-24T09:27:50.410Z,20.20
2023-03-24T09:28:52.748Z,20.20
2023-03-24T09:29:55.042Z,20.20
2023-03-24T09:31:02.855Z,20.20
2023-03-24T09:32:05.306Z,20.20
2023-03-24T09:33:07.782Z,20.40
2023-03-24T09:34:10.368Z,20.60
2023-03-24T09:35:13.554Z,20.80
2023-03-24T09:36:15.904Z,20.90
2023-03-24T09:37:18.371Z,21.00
2023-03-24T09:38:21.401Z,21.10
2023-03-24T09:39:23.791Z,20.90
2023-03-24T09:40:29.503Z,20.90
2023-03-24T09:41:34.242Z,20.80
2023-03-24T09:42:40.834Z,20.80
2023-03-24T09:43:54.780Z,20.80
2023-03-24T09:44:59.114Z,20.90
2023-03-24T09:46:04.542Z,21.00
2023-03-24T09:47:18.940Z,21.20
2023-03-24T09:48:42.518Z,21.20
2023-03-24T09:49:46.378Z,21.20
2023-03-24T09:51:08.675Z,21.20
2023-03-24T09:52:13.226Z,21.20
2023-03-24T09:53:54.555Z,21.30
2023-03-24T09:54:58.654Z,21.30
2023-03-24T09:56:10.498Z,21.30
2023-03-24T09:57:24.632Z,21.30
2023-03-24T09:58:31.312Z,21.30
2023-03-24T09:59:39.749Z,21.30
2023-03-24T10:00:44.720Z,21.30
2023-03-24T10:01:48.142Z,21.30
2023-03-24T10:02:53.024Z,21.30
2023-03-24T10:03:59.099Z,21.30
2023-03-24T10:05:01.622Z,21.30
2023-03-24T10:06:13.939Z,21.30
2023-03-24T10:07:31.591Z,21.30
2023-03-24T10:08:42.234Z,21.30
2023-03-24T10:09:50.690Z,21.40
2023-03-24T10:11:29.445Z,21.40
2023-03-24T10:12:39.911Z,21.40
2023-03-24T10:13:55.772Z,21.40
2023-03-24T10:15:30.968Z,21.40
2023-03-24T10:16:54.301Z,21.40
2023-03-24T10:18:05.755Z,21.40
2023-03-24T10:19:16.924Z,21.40
2023-03-24T10:20:43.462Z,21.50
2023-03-24T10:22:00.617Z,21.50
2023-03-24T10:23:41.361Z,21.50
2023-03-24T10:25:06.835Z,21.50
2023-03-24T10:26:33.042Z,21.50
2023-03-24T10:27:56.059Z,21.50
2023-03-24T10:29:07.780Z,21.50
2023-03-24T10:30:17.335Z,21.50
2023-03-24T10:31:27.772Z,21.50
2023-03-24T10:32:34.252Z,21.50
2023-03-24T10:33:40.281Z,21.50
2023-03-24T10:34:46.668Z,21.50
2023-03-24T10:35:55.023Z,21.60
2023-03-24T10:36:59.608Z,21.60
2023-03-24T10:38:11.534Z,21.70
2023-03-24T10:39:21.154Z,21.60
2023-03-24T10:40:36.194Z,21.50
2023-03-24T10:41:41.003Z,21.50
2023-03-24T10:42:45.005Z,21.40
2023-03-24T10:43:48.934Z,21.40
2023-03-24T10:44:52.435Z,21.40
2023-03-24T10:45:57.385Z,21.40
2023-03-24T10:47:04.800Z,21.40
2023-03-24T10:48:09.211Z,21.40
2023-03-24T10:49:14.862Z,21.40
2023-03-24T10:50:17.283Z,21.50
2023-03-24T10:51:27.613Z,21.60
2023-03-24T10:52:41.198Z,21.70
2023-03-24T10:53:47.845Z,21.70
2023-03-24T10:54:59.318Z,21.80
2023-03-24T10:56:01.969Z,21.80
2023-03-24T10:57:15.577Z,21.80
2023-03-24T10:58:20.552Z,21.80
2023-03-24T10:59:59.386Z,21.80
2023-03-24T11:01:03.199Z,21.80
2023-03-24T11:02:30.628Z,21.90
2023-03-24T11:03:37.178Z,21.80
2023-03-24T11:04:43.640Z,21.80
2023-03-24T11:05:46.480Z,21.80
2023-03-24T11:07:18.970Z,21.70
2023-03-24T11:08:28.557Z,21.60
2023-03-24T11:09:40.701Z,21.50
2023-03-24T11:10:43.536Z,21.50
2023-03-24T11:11:46.217Z,21.40
2023-03-24T11:12:54.521Z,21.30
2023-03-24T11:14:03.288Z,21.30
2023-03-24T11:15:23.807Z,21.30
2023-03-24T11:16:37.910Z,21.20
2023-03-24T11:17:40.285Z,21.20
2023-03-24T11:19:01.969Z,21.20
2023-03-24T11:20:16.034Z,21.20
2023-03-24T11:21:20.508Z,21.20
2023-03-24T11:22:23.355Z,21.20
2023-03-24T11:23:30.868Z,21.10
2023-03-24T11:24:37.558Z,21.10
2023-03-24T11:25:42.370Z,21.10
2023-03-24T11:27:03.189Z,21.20
2023-03-24T11:28:24.825Z,21.20
2023-03-24T11:29:28.393Z,21.10
2023-03-24T11:30:50.308Z,21.20
2023-03-24T11:31:58.610Z,21.20
2023-03-24T11:33:02.665Z,21.10
2023-03-24T11:34:19.897Z,21.20
2023-03-24T11:35:29.433Z,21.20
2023-03-24T11:36:45.412Z,21.20
2023-03-24T11:37:49.067Z,21.10
2023-03-24T11:39:08.276Z,21.10
2023-03-24T11:40:13.774Z,21.10
2023-03-24T11:41:21.224Z,21.10
2023-03-24T11:42:27.603Z,21.10
2023-03-24T11:43:30.783Z,21.10
2023-03-24T11:44:44.877Z,21.10
2023-03-24T11:46:08.273Z,21.10
2023-03-24T11:47:16.222Z,21.00
2023-03-24T11:48:33.683Z,21.00
2023-03-24T11:49:46.735Z,21.00
2023-03-24T11:50:49.551Z,21.00
2023-03-24T11:51:54.678Z,21.00
2023-03-24T11:53:17.061Z,21.00
2023-03-24T11:54:22.191Z,21.00
2023-03-24T11:55:38.201Z,21.00
2023-03-24T11:56:44.377Z,21.00
2023-03-24T11:58:01.972Z,21.00
2023-03-24T11:59:14.620Z,20.90
2023-03-24T12:00:22.966Z,21.00
2023-03-24T12:01:37.122Z,21.00
2023-03-24T12:02:55.280Z,21.00
2023-03-24T12:04:25.709Z,20.90
2023-03-24T12:06:01.628Z,20.90
2023-03-24T12:07:25.510Z,20.90
2023-03-24T12:08:30.433Z,20.90
2023-03-24T12:09:42.523Z,20.90
2023-03-24T12:11:08.363Z,20.90
2023-03-24T12:12:42.395Z,20.90
2023-03-24T12:13:51.776Z,20.80
2023-03-24T12:15:27.407Z,20.80
2023-03-24T12:16:43.524Z,20.80
2023-03-24T12:18:00.845Z,20.80
2023-03-24T12:19:17.015Z,20.90
2023-03-24T12:20:40.134Z,20.90
2023-03-24T12:21:57.660Z,20.80
2023-03-24T12:23:12.526Z,20.80
2023-03-24T12:24:48.376Z,20.70
2023-03-24T12:26:07.526Z,20.70
2023-03-24T12:27:24.873Z,20.70
2023-03-24T12:28:32.802Z,20.70
2023-03-24T12:29:38.249Z,20.70
2023-03-24T12:31:09.096Z,20.70
2023-03-24T12:32:41.408Z,20.60
2023-03-24T12:33:53.544Z,20.50
2023-03-24T12:35:21.499Z,20.40
2023-03-24T12:36:41.714Z,20.40
2023-03-24T12:37:49.458Z,20.30
2023-03-24T12:38:51.816Z,20.20
2023-03-24T12:40:30.916Z,20.10
2023-03-24T12:41:42.612Z,20.10
2023-03-24T12:42:46.705Z,20.10
2023-03-24T12:43:57.887Z,20.10
2023-03-24T12:45:00.226Z,20.10
2023-03-24T12:46:40.618Z,20.00
2023-03-24T12:48:04.579Z,20.00
2023-03-24T12:49:19.654Z,19.90
2023-03-24T12:50:31.162Z,19.90
2023-03-24T12:52:07.234Z,19.90
2023-03-24T12:53:41.654Z,19.90
2023-03-24T12:54:46.674Z,19.80
2023-03-24T12:56:04.157Z,19.80
2023-03-24T12:57:12.359Z,19.80
2023-03-24T12:58:19.487Z,19.70
2023-03-24T12:59:39.164Z,19.70
2023-03-24T13:01:03.986Z,19.70
2023-03-24T13:02:25.207Z,19.70
2023-03-24T13:03:38.657Z,19.70
2023-03-24T13:04:44.229Z,19.70
2023-03-24T13:05:53.782Z,19.70
2023-03-24T13:07:06.900Z,19.70
2023-03-24T13:08:22.827Z,19.60
2023-03-24T13:09:46.699Z,19.60
2023-03-24T13:10:54.379Z,19.60
2023-03-24T13:12:24.216Z,19.60
2023-03-24T13:13:32.996Z,19.60
2023-03-24T13:14:52.101Z,19.50
2023-03-24T13:16:15.420Z,19.50
2023-03-24T13:17:37.066Z,19.50
2023-03-24T13:18:41.309Z,19.60
2023-03-24T13:19:44.251Z,19.60
2023-03-24T13:20:52.276Z,19.50
2023-03-24T13:21:56.087Z,19.40
2023-03-24T13:23:19.456Z,19.40
2023-03-24T13:24:22.469Z,19.40
2023-03-24T13:25:27.398Z,19.40
2023-03-24T13:27:09.456Z,19.30
2023-03-24T13:28:17.529Z,19.30
2023-03-24T13:29:49.114Z,19.40
2023-03-24T13:30:52.631Z,19.40
2023-03-24T13:32:09.363Z,19.40
2023-03-24T13:33:21.909Z,19.40
2023-03-24T13:34:33.107Z,19.40
2023-03-24T13:36:11.062Z,19.40
2023-03-24T13:37:35.941Z,19.40
2023-03-24T13:38:50.087Z,19.50
2023-03-24T13:39:57.832Z,19.40
2023-03-24T13:41:04.887Z,19.40
2023-03-24T13:42:07.758Z,19.50
2023-03-24T13:43:19.069Z,19.40
2023-03-24T13:44:35.982Z,19.40
2023-03-24T13:45:51.618Z,19.40
2023-03-24T13:47:05.684Z,19.40
2023-03-24T13:48:10.866Z,19.40
2023-03-24T13:49:15.424Z,19.50
2023-03-24T13:50:18.019Z,19.50
2023-03-24T13:51:31.992Z,19.60
2023-03-24T13:52:44.956Z,19.60
2023-03-24T13:54:03.496Z,19.60
2023-03-24T13:55:36.895Z,19.60
2023-03-24T13:56:52.796Z,19.60
2023-03-24T13:58:34.307Z,19.60
2023-03-24T14:00:11.808Z,19.60
2023-03-24T14:01:31.576Z,19.60
2023-03-24T14:02:47.981Z,19.60
2023-03-24T14:04:18.319Z,19.60
2023-03-24T14:05:26.280Z,19.60
2023-03-24T14:07:23.503Z,19.60
2023-03-24T14:08:47.446Z,19.60
2023-03-24T14:10:22.777Z,19.60
2023-03-24T14:11:34.421Z,19.60
2023-03-24T14:13:14.644Z,19.50
2023-03-24T14:14:23.193Z,19.50
2023-03-24T14:15:29.007Z,19.50
2023-03-24T14:16:57.420Z,19.50
2023-03-24T14:18:24.801Z,19.60
2023-03-24T14:19:41.877Z,19.60
2023-03-24T14:20:56.412Z,19.60
2023-03-24T14:22:10.888Z,19.60
2023-03-24T14:23:31.637Z,19.60
2023-03-24T14:24:35.367Z,19.60
2023-03-24T14:25:37.841Z,19.50
2023-03-24T14:26:40.965Z,19.50
2023-03-24T14:27:46.899Z,19.50
2023-03-24T14:28:51.550Z,19.60
2023-03-24T14:29:54.289Z,19.60
2023-03-24T14:31:13.253Z,19.60
2023-03-24T14:32:22.645Z,19.60
2023-03-24T14:33:26.583Z,19.60
2023-03-24T14:34:29.878Z,19.60
2023-03-24T14:35:36.890Z,19.60
2023-03-24T14:36:44.667Z,19.70
2023-03-24T14:37:57.492Z,19.60
2023-03-24T14:39:24.636Z,19.60
2023-03-24T14:40:35.482Z,19.60
2023-03-24T14:41:41.222Z,19.60
2023-03-24T14:42:43.549Z,19.60
2023-03-24T14:43:46.005Z,19.60
2023-03-24T14:44:49.389Z,19.60
2023-03-24T14:46:00.243Z,19.60
2023-03-24T14:47:03.477Z,19.70
2023-03-24T14:48:21.257Z,19.70
2023-03-24T14:49:28.823Z,19.70
2023-03-24T14:50:32.305Z,19.60
2023-03-24T14:52:10.604Z,19.70
2023-03-24T14:53:19.543Z,19.70
2023-03-24T14:54:24.654Z,19.70
2023-03-24T14:55:27.794Z,19.70
2023-03-24T14:56:40.250Z,19.80
2023-03-24T14:57:45.605Z,19.80
2023-03-24T14:58:53.694Z,19.80
2023-03-24T15:00:23.312Z,19.80
2023-03-24T15:01:30.408Z,19.80
2023-03-24T15:02:39.382Z,19.80
2023-03-24T15:03:58.478Z,19.80
2023-03-24T15:05:31.707Z,19.80
2023-03-24T15:06:46.920Z,19.80
2023-03-24T15:08:11.530Z,19.80
2023-03-24T15:09:17.340Z,19.90
2023-03-24T15:10:20.132Z,20.00
2023-03-24T15:11:25.957Z,20.00
2023-03-24T15:12:28.451Z,20.00